Albany, New York
Traffic Map
Current Weather Conditions
Albany, New York
Few Clouds
Few Clouds
-2°
Feels Like: -2°
Wind Chill: -2° Ceiling: Unl
Heat Index: -2° Visibility: 10mi
Dew Point: -11° Wind: 0mph
Humidity: 49% Direction: ° ()
Pressure: 30.07in Gusts: 0mph
Raw Report DataKALB 300151Z 00000KT 10SM FEW200 M02/M11 A3007 RMK AO2 SLP185 T10171111
Traffic Incident Summary
Active as of:
Severity:
Category:
InformationThere was an issue retrieving the traffic information for this location. Please try a different location or try again shortly.
Advertisements
Track Severe Weather on mobile